Achigaya, Japan

1:08 PM JST on 三月 24, 2017 (GMT +0900)
Shimada Shi | | Change Station

高度 0 ft 34.79 °N, 138.23 °E | Updated 11 minutes ago

だいたい曇
だいたい曇
58.6 °F
体感気温 58.6 °F
4.3
風 変数 風 から 東北東
Gusts 8.7 Mph

今日
高い -- | 低 -- °F
--% 降水確率
昨日
高い -- | 低 -- °F
Precip. -- インチ
気圧 29.92 インチ
視程 6.2 マイル
わずか 2000 ft
やや曇 3000 ft
露点温度 38 °F
湿度 45%
降水 0.00 インチ
積雪深 利用不可。
5:45 AM 6:01 PM
二十六夜, 18% visible
SPECI RJNY 240148Z 03004KT 350V080 9999 FEW020 SCT030 10/03 Q1013 RMK 1CU020 3CU030 A2994
気圧 29.92 インチ
視程 6.2 マイル
わずか 2000 ft
やや曇 3000 ft
露点温度 38 °F
湿度 45%
降水 0.00 インチ
積雪深 利用不可。
5:45 AM 6:01 PM
二十六夜, 18% visible
SPECI RJNY 240148Z 03004KT 350V080 9999 FEW020 SCT030 10/03 Q1013 RMK 1CU020 3CU030 A2994

Get Severe Weather Alerts

Thanks for signing up!

Be on the lookout for a verification email in your inbox.

You'll start receiving the daily forecast at 8 AM.

×

10-Day Weather Forecast

No radar image for this location.
×

Almanac

天文

Mar. 24, 2017 入り
実時間
常用薄明
航海薄明
天文薄明
可視光の長さ
可照時間
Tomorrow will be .
, % of the Moon is Illuminated

今日の極値

Country Highs Country Lows

Community

WunderPhotos

Upload Photos

1,962,540 写真がアップロードされました!

WunderBlog® & News

Nearby

空気品質

  空気品質 大気質指数 汚染物質
Not available.

積雪深

Station Depth 高度

地震活動

Distance Mag. Time & Date
Minimum magnitude displayed is 2.5.

地震活動

Distance Mag. Time & Date
Minimum magnitude displayed is 2.5.

沿岸の水温

地名 気温

Stations

最寄りの気象観測所

観測所位置 温度 体感気温(寒さ) 露点温度 湿度 Precip. 高度 更新日時 タイプする